createdAt,value
2024-03-03T00:02:08.562Z,17.70
2024-03-03T00:04:55.534Z,17.20
2024-03-03T00:07:35.892Z,16.70
2024-03-03T00:10:22.595Z,18.30
2024-03-03T00:13:02.956Z,16.42
2024-03-03T00:15:49.549Z,17.95
2024-03-03T00:18:29.846Z,17.73
2024-03-03T00:21:16.563Z,16.73
2024-03-03T00:23:56.896Z,16.75
2024-03-03T00:26:43.499Z,16.95
2024-03-03T00:29:24.359Z,18.17
2024-03-03T00:32:11.502Z,17.02
2024-03-03T00:34:51.881Z,16.00
2024-03-03T00:37:38.524Z,17.65
2024-03-03T00:40:25.518Z,16.92
2024-03-03T00:43:05.675Z,16.33
2024-03-03T00:45:52.538Z,17.98
2024-03-03T00:48:32.590Z,16.73
2024-03-03T00:51:19.465Z,16.95
2024-03-03T00:53:59.513Z,16.65
2024-03-03T00:56:47.458Z,17.77
2024-03-03T00:59:27.631Z,17.50
2024-03-03T01:02:14.498Z,15.98
2024-03-03T01:05:09.466Z,15.63
2024-03-03T01:07:56.488Z,17.67
2024-03-03T01:10:36.562Z,15.10
2024-03-03T01:13:23.537Z,16.58
2024-03-03T01:16:03.530Z,16.40
2024-03-03T01:18:50.451Z,15.77
2024-03-03T01:21:37.529Z,16.52
2024-03-03T01:24:24.436Z,16.98
2024-03-03T01:27:11.401Z,16.77
2024-03-03T01:29:51.881Z,17.48
2024-03-03T01:32:38.406Z,16.40
2024-03-03T01:35:18.788Z,17.33
2024-03-03T01:38:05.393Z,14.85
2024-03-03T01:40:58.408Z,16.20
2024-03-03T01:43:38.550Z,15.75
2024-03-03T01:46:25.480Z,16.25
2024-03-03T01:49:12.461Z,15.35
2024-03-03T01:51:53.431Z,15.90
2024-03-03T01:54:40.366Z,15.77
2024-03-03T01:57:29.435Z,15.32
2024-03-03T02:00:22.297Z,15.65
2024-03-03T02:03:08.512Z,15.20
2024-03-03T02:05:55.427Z,15.20
2024-03-03T02:08:43.428Z,15.98
2024-03-03T02:11:24.345Z,16.08
2024-03-03T02:14:11.456Z,15.07
2024-03-03T02:16:51.337Z,15.50
2024-03-03T02:19:44.477Z,16.05
2024-03-03T02:22:31.375Z,17.70
2024-03-03T02:25:11.795Z,16.20
2024-03-03T02:27:58.377Z,15.60
2024-03-03T02:30:38.731Z,15.32
2024-03-03T02:33:25.378Z,15.65
2024-03-03T02:36:06.057Z,17.50
2024-03-03T02:38:58.464Z,16.95
2024-03-03T02:41:38.682Z,15.40
2024-03-03T02:44:25.310Z,15.13
2024-03-03T02:47:12.319Z,16.33
2024-03-03T02:49:59.295Z,19.85
2024-03-03T02:52:39.668Z,20.10
2024-03-03T02:55:26.399Z,20.02
2024-03-03T02:58:13.333Z,20.15
2024-03-03T03:01:00.303Z,19.70
2024-03-03T03:03:47.341Z,19.52
2024-03-03T03:06:34.389Z,20.77
2024-03-03T03:09:14.235Z,19.83
2024-03-03T03:11:54.729Z,19.23
2024-03-03T03:14:41.298Z,19.63
2024-03-03T03:17:21.962Z,21.23
2024-03-03T03:20:09.273Z,21.20
2024-03-03T03:22:49.578Z,21.20
2024-03-03T03:25:36.295Z,19.67
2024-03-03T03:28:16.722Z,20.77
2024-03-03T03:31:03.308Z,21.25
2024-03-03T03:33:43.865Z,21.27
2024-03-03T03:36:30.234Z,20.48
2024-03-03T03:39:17.351Z,20.40
2024-03-03T03:42:05.228Z,20.88
2024-03-03T03:44:45.581Z,20.92
2024-03-03T03:47:32.279Z,20.63
2024-03-03T04:03:52.407Z,21.00
2024-03-03T04:06:32.756Z,22.30
2024-03-03T04:09:20.352Z,21.33
2024-03-03T04:12:00.796Z,20.65
2024-03-03T04:14:48.384Z,20.33
2024-03-03T04:17:35.478Z,20.48
2024-03-03T04:20:16.343Z,22.25
2024-03-03T04:22:56.739Z,21.95
2024-03-03T04:25:43.331Z,20.88
2024-03-03T04:28:30.338Z,18.75
2024-03-03T04:31:20.425Z,18.23
2024-03-03T04:34:07.427Z,19.33
2024-03-03T04:36:58.388Z,18.25
2024-03-03T04:39:45.379Z,19.90
2024-03-03T04:42:32.313Z,18.90
2024-03-03T04:45:12.787Z,19.27
2024-03-03T04:47:59.354Z,18.85
2024-03-03T04:50:39.712Z,20.95
2024-03-03T04:53:26.289Z,19.15
2024-03-03T04:56:06.883Z,18.55
2024-03-03T04:58:53.302Z,19.02
2024-03-03T05:01:34.636Z,18.80
2024-03-03T05:04:21.307Z,17.50
2024-03-03T05:07:01.727Z,18.00
2024-03-03T05:09:48.303Z,16.92
2024-03-03T05:12:35.290Z,18.48
2024-03-03T05:15:22.247Z,17.77
2024-03-03T05:18:09.380Z,17.85
2024-03-03T05:20:49.242Z,18.08
2024-03-03T05:23:29.668Z,16.63
2024-03-03T05:26:16.293Z,16.98
2024-03-03T05:28:56.580Z,16.95
2024-03-03T05:31:49.301Z,18.77
2024-03-03T05:34:29.764Z,19.45
2024-03-03T05:37:16.267Z,18.70
2024-03-03T05:39:56.626Z,18.70
2024-03-03T05:42:43.276Z,19.80
2024-03-03T05:45:23.622Z,18.20
2024-03-03T05:48:10.224Z,19.60
2024-03-03T05:50:57.243Z,20.35
2024-03-03T05:53:37.315Z,20.88
2024-03-03T05:56:24.169Z,19.95
2024-03-03T05:59:11.199Z,17.52
2024-03-03T06:01:59.295Z,18.58
2024-03-03T06:04:46.198Z,18.42
2024-03-03T06:07:26.631Z,19.17
2024-03-03T06:10:13.280Z,19.27
2024-03-03T06:13:00.258Z,18.20
2024-03-03T06:15:40.390Z,18.10
2024-03-03T06:18:27.199Z,19.70
2024-03-03T06:21:08.310Z,19.33
2024-03-03T06:23:55.183Z,20.70
2024-03-03T06:26:43.204Z,20.55
2024-03-03T06:29:23.589Z,20.88
2024-03-03T06:32:10.168Z,21.85
2024-03-03T06:34:58.136Z,22.33
2024-03-03T06:37:38.322Z,24.90
2024-03-03T06:40:25.277Z,22.85
2024-03-03T06:43:05.335Z,22.90
2024-03-03T06:45:52.226Z,22.50
2024-03-03T06:48:35.198Z,23.45
2024-03-03T06:51:22.156Z,25.63
2024-03-03T06:54:02.212Z,24.52
2024-03-03T06:56:50.158Z,24.33
2024-03-03T06:59:31.383Z,25.38
2024-03-03T07:02:18.134Z,25.73
2024-03-03T07:05:05.168Z,24.45
2024-03-03T07:07:52.129Z,24.00
2024-03-03T07:10:32.965Z,25.15
2024-03-03T07:13:21.257Z,27.00
2024-03-03T07:16:01.974Z,24.60
2024-03-03T07:18:49.124Z,26.92
2024-03-03T07:21:29.224Z,25.77
2024-03-03T07:24:16.094Z,24.95
2024-03-03T07:27:03.387Z,25.38
2024-03-03T07:29:52.109Z,25.00
2024-03-03T07:32:39.298Z,26.58
2024-03-03T07:35:27.109Z,27.17
2024-03-03T07:38:07.113Z,25.45
2024-03-03T07:40:47.507Z,25.60
2024-03-03T07:43:36.110Z,26.08
2024-03-03T07:46:23.278Z,25.58
2024-03-03T07:49:06.421Z,26.83
2024-03-03T07:51:53.461Z,25.23
2024-03-03T07:54:40.241Z,26.13
2024-03-03T07:57:28.200Z,26.05
2024-03-03T08:00:08.187Z,25.30
2024-03-03T08:02:55.252Z,25.38
2024-03-03T08:05:44.940Z,24.60
2024-03-03T08:08:27.564Z,25.42
2024-03-03T08:11:14.215Z,26.45
2024-03-03T08:13:54.464Z,25.63
2024-03-03T08:16:42.005Z,25.92
2024-03-03T08:19:23.105Z,26.77
2024-03-03T08:22:10.206Z,26.42
2024-03-03T08:24:57.052Z,27.67
2024-03-03T08:27:37.158Z,25.52
2024-03-03T08:30:24.020Z,25.60
2024-03-03T08:33:04.685Z,26.73
2024-03-03T08:35:52.036Z,25.58
2024-03-03T08:38:32.177Z,24.25
2024-03-03T08:41:18.988Z,23.45
2024-03-03T08:43:59.283Z,25.35
2024-03-03T08:46:45.993Z,24.10
2024-03-03T08:49:26.403Z,24.45
2024-03-03T08:52:15.982Z,23.02
2024-03-03T08:55:03.047Z,24.42
2024-03-03T08:57:50.724Z,25.05
2024-03-03T09:00:30.957Z,24.50
2024-03-03T09:03:25.000Z,23.73
2024-03-03T09:06:05.644Z,22.97
2024-03-03T09:08:51.968Z,23.45
2024-03-03T09:11:41.959Z,23.92
2024-03-03T09:14:22.062Z,22.70
2024-03-03T09:17:08.919Z,24.58
2024-03-03T09:19:56.011Z,24.67
2024-03-03T09:22:37.447Z,23.35
2024-03-03T09:25:25.075Z,24.27
2024-03-03T09:28:05.405Z,24.02
2024-03-03T09:30:51.930Z,25.48
2024-03-03T09:33:32.411Z,23.92
2024-03-03T09:36:19.879Z,23.10
2024-03-03T09:39:00.282Z,24.00
2024-03-03T09:41:46.933Z,25.95
2024-03-03T09:44:31.053Z,24.10
2024-03-03T09:47:18.951Z,23.90
2024-03-03T09:50:00.328Z,23.67
2024-03-03T09:52:47.968Z,24.65
2024-03-03T09:55:37.911Z,25.23
2024-03-03T09:58:18.067Z,22.25
2024-03-03T10:01:14.963Z,24.10
2024-03-03T10:04:02.954Z,24.63
2024-03-03T10:06:45.116Z,24.38
2024-03-03T10:09:33.904Z,24.30
2024-03-03T10:12:27.921Z,24.30
2024-03-03T10:15:16.925Z,25.30
2024-03-03T10:17:57.284Z,24.45
2024-03-03T10:20:43.911Z,24.95
2024-03-03T10:23:38.883Z,24.92
2024-03-03T10:26:19.244Z,24.67
2024-03-03T10:29:23.821Z,24.90
2024-03-03T10:32:09.903Z,24.23
2024-03-03T10:35:10.876Z,24.10
2024-03-03T10:38:00.401Z,25.52
2024-03-03T10:40:46.913Z,23.63
2024-03-03T10:43:27.296Z,24.40
2024-03-03T10:46:13.880Z,23.17
2024-03-03T10:49:02.853Z,25.02
2024-03-03T10:51:49.891Z,25.90
2024-03-03T10:54:36.801Z,23.17
2024-03-03T10:57:27.875Z,23.98
2024-03-03T11:00:17.558Z,24.50
2024-03-03T11:03:05.821Z,23.70
2024-03-03T11:05:48.088Z,23.70
2024-03-03T11:08:36.016Z,25.15
2024-03-03T11:11:30.186Z,23.48
2024-03-03T11:14:24.809Z,24.63
2024-03-03T11:17:09.719Z,22.60
2024-03-03T11:20:00.792Z,24.60
2024-03-03T11:23:04.837Z,24.83
2024-03-03T11:26:38.044Z,26.30
2024-03-03T11:29:28.835Z,23.35
2024-03-03T11:32:16.833Z,23.75
2024-03-03T11:34:59.610Z,24.65
2024-03-03T11:37:46.780Z,26.42
2024-03-03T11:40:35.846Z,24.02
2024-03-03T11:43:15.934Z,25.23
2024-03-03T11:46:04.842Z,24.80
2024-03-03T11:48:48.992Z,25.33
2024-03-03T11:51:38.756Z,25.90
2024-03-03T11:54:27.773Z,25.42
2024-03-03T11:57:12.535Z,24.05
2024-03-03T12:00:02.719Z,25.27
2024-03-03T12:02:57.787Z,24.83
2024-03-03T12:05:38.396Z,25.00
2024-03-03T12:08:30.785Z,24.63
2024-03-03T12:11:15.180Z,25.05
2024-03-03T12:14:01.817Z,24.85
2024-03-03T12:16:42.131Z,23.67
2024-03-03T12:19:28.779Z,24.83
2024-03-03T12:22:16.775Z,23.23
2024-03-03T12:25:09.718Z,22.65
2024-03-03T12:27:55.299Z,23.05
2024-03-03T12:30:49.726Z,21.15
2024-03-03T12:36:16.724Z,22.08
2024-03-03T12:38:57.105Z,21.45
2024-03-03T12:41:44.692Z,23.00
2024-03-03T12:44:26.317Z,22.83
2024-03-03T12:47:12.684Z,21.40
2024-03-03T12:49:53.060Z,22.42
2024-03-03T12:52:39.672Z,21.85
2024-03-03T12:55:26.297Z,20.67
2024-03-03T12:58:13.642Z,21.35
2024-03-03T13:00:54.793Z,20.98
2024-03-03T13:03:44.742Z,21.58
2024-03-03T13:06:32.628Z,20.95
2024-03-03T13:09:21.641Z,21.88
2024-03-03T13:12:08.648Z,22.05
2024-03-03T13:14:55.707Z,20.88
2024-03-03T13:17:42.686Z,20.98
2024-03-03T13:20:35.157Z,22.30
2024-03-03T13:23:26.650Z,20.88
2024-03-03T13:26:06.831Z,20.73
2024-03-03T13:28:56.655Z,20.45
2024-03-03T13:31:36.761Z,20.40
2024-03-03T13:34:23.727Z,20.88
2024-03-03T13:37:05.087Z,21.88
2024-03-03T13:39:51.713Z,20.42
2024-03-03T13:42:31.679Z,19.92
2024-03-03T13:45:18.696Z,19.67
2024-03-03T13:47:58.737Z,18.80
2024-03-03T13:50:47.704Z,17.92
2024-03-03T13:53:27.711Z,18.48
2024-03-03T13:56:14.594Z,19.88
2024-03-03T13:58:54.677Z,19.60
2024-03-03T14:01:41.677Z,20.08
2024-03-03T14:04:28.834Z,19.40
2024-03-03T14:07:10.627Z,22.13
2024-03-03T14:09:50.976Z,21.92
2024-03-03T14:12:37.554Z,20.55
2024-03-03T14:15:24.552Z,20.55
2024-03-03T14:18:05.117Z,20.80
2024-03-03T14:20:51.558Z,21.05
2024-03-03T14:23:31.652Z,20.85
2024-03-03T14:26:18.559Z,21.90
2024-03-03T14:28:58.724Z,20.38
2024-03-03T14:31:45.581Z,19.05
2024-03-03T14:34:32.613Z,17.65
2024-03-03T14:37:22.610Z,19.83
2024-03-03T14:40:03.343Z,18.58
2024-03-03T14:42:50.583Z,19.02
2024-03-03T14:45:33.664Z,19.83
2024-03-03T14:48:20.547Z,18.40
2024-03-03T14:51:00.647Z,19.58
2024-03-03T14:53:47.529Z,20.67
2024-03-03T14:56:27.624Z,19.23
2024-03-03T14:59:14.566Z,19.38
2024-03-03T15:01:54.824Z,19.17
2024-03-03T15:04:41.590Z,19.08
2024-03-03T15:07:29.505Z,17.58
2024-03-03T15:10:16.588Z,18.90
2024-03-03T15:12:56.769Z,17.95
2024-03-03T15:15:44.458Z,18.45
2024-03-03T15:18:25.094Z,18.38
2024-03-03T15:21:13.483Z,18.88
2024-03-03T15:23:53.918Z,18.30
2024-03-03T15:26:40.492Z,18.58
2024-03-03T15:29:20.969Z,19.65
2024-03-03T15:32:07.453Z,18.38
2024-03-03T15:34:47.577Z,18.88
2024-03-03T15:37:34.533Z,16.88
2024-03-03T15:40:16.073Z,16.67
2024-03-03T15:43:02.596Z,16.92
2024-03-03T15:45:44.170Z,18.08
2024-03-03T15:48:31.415Z,17.20
2024-03-03T15:51:11.578Z,18.27
2024-03-03T16:05:47.553Z,16.75
2024-03-03T16:08:34.698Z,15.90
2024-03-03T16:11:21.609Z,18.67
2024-03-03T16:14:20.894Z,20.10
2024-03-03T16:17:08.586Z,19.02
2024-03-03T16:19:49.740Z,17.73
2024-03-03T16:22:36.613Z,19.80
2024-03-03T16:25:16.894Z,19.48
2024-03-03T16:28:04.597Z,18.75
2024-03-03T16:30:51.652Z,20.27
2024-03-03T16:33:31.553Z,19.58
2024-03-03T16:36:20.358Z,20.50
2024-03-03T16:39:00.513Z,21.88
2024-03-03T16:41:47.506Z,19.83
2024-03-03T16:44:34.560Z,19.58
2024-03-03T16:47:14.957Z,21.00
2024-03-03T16:50:01.552Z,21.63
2024-03-03T16:52:48.497Z,19.38
2024-03-03T16:55:28.973Z,20.55
2024-03-03T16:58:16.516Z,20.60
2024-03-03T17:01:06.005Z,20.73
2024-03-03T17:04:00.676Z,21.10
2024-03-03T17:06:41.854Z,21.23
2024-03-03T17:09:28.442Z,19.02
2024-03-03T17:12:15.566Z,19.85
2024-03-03T17:14:56.025Z,21.35
2024-03-03T17:17:42.498Z,20.08
2024-03-03T17:20:22.527Z,18.70
2024-03-03T17:23:09.473Z,21.08
2024-03-03T17:25:49.943Z,19.02
2024-03-03T17:28:36.507Z,21.02
2024-03-03T17:31:23.516Z,19.80
2024-03-03T17:34:03.594Z,20.02
2024-03-03T17:36:50.571Z,19.42
2024-03-03T17:39:30.583Z,20.38
2024-03-03T17:42:17.404Z,20.77
2024-03-03T17:44:57.509Z,22.02
2024-03-03T17:47:44.491Z,20.73
2024-03-03T17:50:24.719Z,21.60
2024-03-03T17:53:14.206Z,20.80
2024-03-03T17:55:55.049Z,20.42
2024-03-03T17:58:41.498Z,21.77
2024-03-03T18:01:21.673Z,20.30
2024-03-03T18:04:08.461Z,19.15
2024-03-03T18:06:48.571Z,21.20
2024-03-03T18:09:35.362Z,19.70
2024-03-03T18:12:15.529Z,20.30
2024-03-03T18:15:02.379Z,18.75
2024-03-03T18:17:44.593Z,18.15
2024-03-03T18:20:31.424Z,18.00
2024-03-03T18:23:11.509Z,17.98
2024-03-03T18:25:58.349Z,17.92
2024-03-03T18:28:46.352Z,16.83
2024-03-03T18:31:26.833Z,18.15
2024-03-03T18:34:13.450Z,17.77
2024-03-03T18:36:55.557Z,17.02
2024-03-03T18:39:42.336Z,15.65
2024-03-03T18:42:29.373Z,17.33
2024-03-03T18:45:16.384Z,16.75
2024-03-03T18:48:03.445Z,17.35
2024-03-03T18:50:50.364Z,16.52
2024-03-03T18:53:30.740Z,18.13
2024-03-03T18:56:17.328Z,17.48
2024-03-03T18:59:04.382Z,17.08
2024-03-03T19:01:44.551Z,18.20
2024-03-03T19:04:32.373Z,17.92
2024-03-03T19:07:19.327Z,17.05
2024-03-03T19:10:06.515Z,19.27
2024-03-03T19:12:46.354Z,18.50
2024-03-03T19:15:26.728Z,17.48
2024-03-03T19:18:13.325Z,17.92
2024-03-03T19:21:00.862Z,18.33
2024-03-03T19:23:40.354Z,18.33
2024-03-03T19:26:27.446Z,17.23
2024-03-03T19:29:07.337Z,20.50
2024-03-03T19:31:47.700Z,19.08
2024-03-03T19:34:34.737Z,17.95
2024-03-03T19:37:22.392Z,17.40
2024-03-03T19:40:03.701Z,18.55
2024-03-03T19:42:51.668Z,18.95
2024-03-03T19:45:31.404Z,19.38
2024-03-03T19:48:18.297Z,17.92
2024-03-03T19:51:05.484Z,18.10
2024-03-03T19:53:52.333Z,18.00
2024-03-03T19:56:32.391Z,17.50
2024-03-03T19:59:20.242Z,18.75
2024-03-03T20:02:08.132Z,18.92
2024-03-03T20:05:05.785Z,18.50
2024-03-03T20:07:47.484Z,17.95
2024-03-03T20:10:34.503Z,18.48
2024-03-03T20:13:21.377Z,18.05
2024-03-03T20:16:02.290Z,19.23
2024-03-03T20:18:43.436Z,19.90
2024-03-03T20:21:30.202Z,20.60
2024-03-03T20:24:17.952Z,20.27
2024-03-03T20:26:58.369Z,20.30
2024-03-03T20:29:38.640Z,20.60
2024-03-03T20:32:25.192Z,19.48
2024-03-03T20:35:13.254Z,21.63
2024-03-03T20:37:53.338Z,19.95
2024-03-03T20:40:40.250Z,21.13
2024-03-03T20:43:20.420Z,19.67
2024-03-03T20:46:07.284Z,19.27
2024-03-03T20:48:47.256Z,19.75
2024-03-03T20:51:34.152Z,20.98
2024-03-03T20:54:23.159Z,19.80
2024-03-03T20:57:16.186Z,19.55
2024-03-03T21:00:03.152Z,20.08
2024-03-03T21:02:50.342Z,20.00
2024-03-03T21:05:37.166Z,20.70
2024-03-03T21:08:24.165Z,20.20
2024-03-03T21:11:11.293Z,20.70
2024-03-03T21:13:52.125Z,20.80
2024-03-03T21:16:41.191Z,19.42
2024-03-03T21:19:21.279Z,19.05
2024-03-03T21:22:09.229Z,19.95
2024-03-03T21:24:49.305Z,17.52
2024-03-03T21:27:36.150Z,20.95
2024-03-03T21:30:16.274Z,20.08
2024-03-03T21:33:03.175Z,18.95
2024-03-03T21:35:50.130Z,18.73
2024-03-03T21:38:37.181Z,17.25
2024-03-03T21:41:17.087Z,18.30
2024-03-03T21:43:57.517Z,19.20
2024-03-03T21:46:44.274Z,18.95
2024-03-03T21:49:24.536Z,18.23
2024-03-03T21:52:11.144Z,17.33
2024-03-03T21:54:58.156Z,19.27
2024-03-03T21:57:38.071Z,20.20
2024-03-03T22:00:25.106Z,18.63
2024-03-03T22:03:05.148Z,18.98
2024-03-03T22:05:52.155Z,19.73
2024-03-03T22:08:39.041Z,20.02
2024-03-03T22:11:26.277Z,18.27
2024-03-03T22:14:06.034Z,19.73
2024-03-03T22:16:47.291Z,19.33
2024-03-03T22:19:34.217Z,20.27
2024-03-03T22:22:14.617Z,18.83
2024-03-03T22:25:03.149Z,18.67
2024-03-03T22:27:50.065Z,17.77
2024-03-03T22:30:30.169Z,18.27
2024-03-03T22:33:17.158Z,19.30
2024-03-03T22:35:57.172Z,17.42
2024-03-03T22:38:44.049Z,17.70
2024-03-03T22:41:24.091Z,19.38
2024-03-03T22:44:11.005Z,19.27
2024-03-03T22:46:53.854Z,20.85
2024-03-03T22:49:42.076Z,18.00
2024-03-03T22:52:22.144Z,17.15
2024-03-03T22:55:09.135Z,18.33
2024-03-03T22:57:56.024Z,18.35
2024-03-03T23:00:46.026Z,18.55
2024-03-03T23:03:26.070Z,19.20
2024-03-03T23:06:15.995Z,19.50
2024-03-03T23:09:02.990Z,17.63
2024-03-03T23:11:50.047Z,18.33
2024-03-03T23:14:30.093Z,19.30
2024-03-03T23:17:16.973Z,20.20
2024-03-03T23:19:57.037Z,18.33
2024-03-03T23:22:43.972Z,19.58
2024-03-03T23:25:24.224Z,20.63
2024-03-03T23:28:11.039Z,17.27
2024-03-03T23:30:51.121Z,17.42
2024-03-03T23:33:38.001Z,17.80
2024-03-03T23:36:21.076Z,16.60
2024-03-03T23:39:07.972Z,16.65
2024-03-03T23:41:48.003Z,18.10
2024-03-03T23:44:35.005Z,17.00
2024-03-03T23:47:22.994Z,16.55
2024-03-03T23:50:11.982Z,18.15
2024-03-03T23:52:54.067Z,16.95
2024-03-03T23:55:41.964Z,17.08
2024-03-03T23:58:22.108Z,17.40
